createdAt,value
2022-08-31T00:00:30.059Z,47.43
2022-08-31T00:03:17.121Z,47.57
2022-08-31T00:05:45.576Z,47.75
2022-08-31T00:08:13.953Z,48.12
2022-08-31T00:10:46.097Z,47.99
2022-08-31T00:13:14.374Z,48.11
2022-08-31T00:15:43.715Z,48.43
2022-08-31T00:18:13.279Z,48.36
2022-08-31T00:20:41.812Z,51.27
2022-08-31T00:23:12.329Z,54.33
2022-08-31T00:25:42.710Z,56.97
2022-08-31T00:28:11.974Z,59.09
2022-08-31T00:30:41.770Z,61.46
2022-08-31T00:33:11.599Z,62.80
2022-08-31T00:35:42.720Z,65.31
2022-08-31T00:38:12.427Z,67.32
2022-08-31T00:40:44.758Z,71.15
2022-08-31T00:43:14.084Z,73.76
2022-08-31T00:45:42.295Z,73.97
2022-08-31T00:48:10.530Z,74.26
2022-08-31T00:50:40.039Z,74.33
2022-08-31T00:53:08.371Z,75.57
2022-08-31T00:55:38.124Z,77.46
2022-08-31T00:58:13.005Z,75.76
2022-08-31T01:00:43.154Z,77.97
2022-08-31T01:03:12.075Z,78.38
2022-08-31T01:05:41.811Z,77.25
2022-08-31T01:08:10.417Z,78.62
2022-08-31T01:10:43.845Z,78.26
2022-08-31T01:13:13.537Z,78.22
2022-08-31T01:15:47.381Z,78.65
2022-08-31T01:18:21.010Z,78.31
2022-08-31T01:20:59.177Z,79.82
2022-08-31T01:23:33.404Z,79.71
2022-08-31T01:26:04.087Z,80.12
2022-08-31T01:28:32.279Z,80.95
2022-08-31T01:31:17.622Z,80.51
2022-08-31T01:33:45.700Z,81.66
2022-08-31T01:36:16.227Z,83.10
2022-08-31T01:38:46.729Z,83.40
2022-08-31T01:41:20.905Z,82.58
2022-08-31T01:43:49.018Z,83.73
2022-08-31T01:46:17.439Z,84.48
2022-08-31T01:48:46.810Z,85.12
2022-08-31T01:51:16.754Z,84.83
2022-08-31T01:53:48.761Z,83.90
2022-08-31T01:56:19.962Z,83.81
2022-08-31T01:58:48.005Z,84.35
2022-08-31T02:01:37.130Z,85.87
2022-08-31T02:04:08.415Z,87.34
2022-08-31T02:06:36.871Z,84.16
2022-08-31T02:09:08.027Z,86.21
2022-08-31T02:11:37.687Z,86.41
2022-08-31T02:14:06.578Z,86.42
2022-08-31T02:16:34.658Z,86.75
2022-08-31T02:19:02.715Z,87.69
2022-08-31T02:21:30.878Z,86.47
2022-08-31T02:23:59.008Z,86.08
2022-08-31T02:26:28.551Z,86.46
2022-08-31T02:28:56.550Z,85.62
2022-08-31T02:31:24.583Z,84.71
2022-08-31T02:33:58.767Z,85.73
2022-08-31T02:36:27.261Z,86.28
2022-08-31T02:38:56.126Z,86.56
2022-08-31T02:41:25.542Z,86.61
2022-08-31T02:43:55.078Z,87.30
2022-08-31T02:46:23.285Z,87.49
2022-08-31T02:49:10.514Z,87.92
2022-08-31T02:51:40.898Z,88.06
2022-08-31T02:54:08.903Z,88.05
2022-08-31T02:56:36.886Z,87.33
2022-08-31T02:59:06.728Z,88.21
2022-08-31T03:01:36.184Z,88.47
2022-08-31T03:04:05.276Z,88.34
2022-08-31T03:06:33.285Z,88.50
2022-08-31T03:09:02.662Z,88.49
2022-08-31T03:11:30.809Z,87.70
2022-08-31T03:13:59.076Z,88.11
2022-08-31T03:16:28.651Z,88.00
2022-08-31T03:18:56.733Z,87.88
2022-08-31T03:21:24.791Z,87.52
2022-08-31T03:23:52.768Z,87.66
2022-08-31T03:26:21.747Z,87.49
2022-08-31T03:28:49.803Z,89.32
2022-08-31T03:31:39.648Z,88.03
2022-08-31T03:34:07.875Z,88.92
2022-08-31T03:36:36.813Z,88.83
2022-08-31T03:39:05.376Z,88.86
2022-08-31T03:41:33.483Z,89.81
2022-08-31T03:44:02.774Z,88.66
2022-08-31T03:46:33.698Z,88.62
2022-08-31T03:49:04.691Z,88.19
2022-08-31T03:51:34.404Z,88.79
2022-08-31T03:54:03.367Z,87.56
2022-08-31T03:56:33.759Z,88.56
2022-08-31T03:59:01.775Z,87.68
2022-08-31T04:01:48.374Z,88.52
2022-08-31T04:04:36.209Z,88.34
2022-08-31T04:07:23.145Z,88.17
2022-08-31T04:10:29.050Z,88.34
2022-08-31T04:13:29.462Z,88.03
2022-08-31T04:16:27.946Z,87.84
2022-08-31T04:19:16.053Z,88.53
2022-08-31T04:21:57.316Z,88.79
2022-08-31T04:24:25.991Z,89.14
2022-08-31T04:26:54.485Z,87.94
2022-08-31T04:29:23.638Z,88.66
2022-08-31T04:31:51.646Z,88.20
2022-08-31T04:34:19.726Z,88.25
2022-08-31T04:36:48.262Z,89.02
2022-08-31T04:39:18.845Z,87.49
2022-08-31T04:41:47.607Z,88.00
2022-08-31T04:44:19.945Z,87.80
2022-08-31T04:46:52.986Z,87.68
2022-08-31T04:49:21.020Z,88.73
2022-08-31T04:51:49.464Z,88.21
2022-08-31T04:54:18.846Z,88.03
2022-08-31T04:56:46.946Z,87.78
2022-08-31T04:59:27.247Z,88.99
2022-08-31T05:02:27.430Z,88.48
2022-08-31T05:05:04.250Z,89.60
2022-08-31T05:07:32.216Z,89.04
2022-08-31T05:10:02.318Z,88.71
2022-08-31T05:12:32.120Z,88.78
2022-08-31T05:15:00.350Z,90.46
2022-08-31T05:17:29.588Z,90.05
2022-08-31T05:19:58.023Z,88.98
2022-08-31T05:22:25.994Z,89.49
2022-08-31T05:24:55.918Z,89.71
2022-08-31T05:27:25.330Z,90.26
2022-08-31T05:29:53.279Z,88.72
2022-08-31T05:32:53.309Z,89.15
2022-08-31T05:35:21.309Z,88.26
2022-08-31T05:37:51.543Z,88.92
2022-08-31T05:40:21.088Z,89.15
2022-08-31T05:42:50.806Z,88.49
2022-08-31T05:45:19.210Z,88.94
2022-08-31T05:47:48.754Z,88.97
2022-08-31T05:50:18.583Z,89.25
2022-08-31T05:52:46.982Z,89.77
2022-08-31T05:55:15.362Z,90.37
2022-08-31T05:57:43.351Z,90.41
2022-08-31T06:00:13.675Z,90.84
2022-08-31T06:02:45.682Z,90.93
2022-08-31T06:05:15.135Z,89.99
2022-08-31T06:07:45.830Z,89.20
2022-08-31T06:10:15.608Z,89.05
2022-08-31T06:12:47.365Z,90.10
2022-08-31T06:15:19.219Z,88.91
2022-08-31T06:17:47.163Z,89.61
2022-08-31T06:20:18.042Z,89.38
2022-08-31T06:22:47.964Z,90.20
2022-08-31T06:25:25.927Z,89.04
2022-08-31T06:27:55.179Z,88.29
2022-08-31T06:30:27.260Z,89.23
2022-08-31T06:32:58.632Z,88.31
2022-08-31T06:35:40.177Z,87.83
2022-08-31T06:38:26.862Z,88.79
2022-08-31T06:41:16.504Z,88.59
2022-08-31T06:44:06.756Z,88.74
2022-08-31T06:47:15.470Z,88.56
2022-08-31T06:49:43.426Z,88.85
2022-08-31T06:52:11.447Z,88.39
2022-08-31T06:54:42.348Z,88.38
2022-08-31T06:57:28.939Z,89.31
2022-08-31T07:00:17.663Z,89.16
2022-08-31T07:02:54.733Z,88.46
2022-08-31T07:05:25.571Z,89.18
2022-08-31T07:07:54.760Z,89.29
2022-08-31T07:10:22.818Z,89.19
2022-08-31T07:12:50.827Z,89.33
2022-08-31T07:15:18.868Z,88.10
2022-08-31T07:17:48.054Z,89.22
2022-08-31T07:20:17.799Z,88.79
2022-08-31T07:22:46.079Z,90.22
2022-08-31T07:25:39.188Z,89.77
2022-08-31T07:28:07.445Z,89.77
2022-08-31T07:30:38.206Z,90.00
2022-08-31T07:33:06.726Z,90.49
2022-08-31T07:35:38.363Z,89.63
2022-08-31T07:38:43.982Z,89.68
2022-08-31T07:41:29.810Z,88.37
2022-08-31T07:43:59.525Z,88.87
2022-08-31T07:46:31.513Z,87.00
2022-08-31T07:49:00.780Z,89.23
2022-08-31T07:51:51.026Z,88.56
2022-08-31T07:54:40.942Z,89.33
2022-08-31T07:57:22.063Z,89.58
2022-08-31T07:59:55.735Z,89.19
2022-08-31T08:02:24.560Z,88.62
2022-08-31T08:04:54.088Z,88.17
2022-08-31T08:07:54.627Z,89.08
2022-08-31T08:10:55.048Z,89.39
2022-08-31T08:13:38.813Z,89.19
2022-08-31T08:16:17.660Z,89.25
2022-08-31T08:18:51.272Z,88.86
2022-08-31T08:21:24.507Z,88.77
2022-08-31T08:23:55.119Z,88.97
2022-08-31T08:26:44.378Z,89.05
2022-08-31T08:29:49.031Z,87.50
2022-08-31T08:32:22.912Z,87.89
2022-08-31T08:34:51.618Z,88.76
2022-08-31T08:37:35.677Z,89.43
2022-08-31T08:40:22.973Z,89.06
2022-08-31T08:42:51.292Z,88.58
2022-08-31T08:45:19.542Z,88.29
2022-08-31T08:47:49.948Z,86.40
2022-08-31T08:50:18.971Z,87.75
2022-08-31T08:52:48.618Z,87.95
2022-08-31T08:55:23.030Z,87.21
2022-08-31T08:57:56.194Z,87.27
2022-08-31T09:00:26.866Z,89.03
2022-08-31T09:03:01.231Z,85.37
2022-08-31T09:06:09.612Z,86.44
2022-08-31T09:09:08.390Z,87.83
2022-08-31T09:11:55.024Z,87.06
2022-08-31T09:14:36.823Z,84.98
2022-08-31T09:17:16.312Z,85.11
2022-08-31T09:20:00.508Z,84.84
2022-08-31T09:22:33.291Z,84.73
2022-08-31T09:25:04.311Z,83.60
2022-08-31T09:27:58.155Z,83.34
2022-08-31T09:30:41.215Z,82.91
2022-08-31T09:33:18.657Z,83.82
2022-08-31T09:35:48.104Z,81.60
2022-08-31T09:38:29.415Z,82.97
2022-08-31T09:40:57.765Z,83.96
2022-08-31T09:43:35.172Z,85.33
2022-08-31T09:46:08.355Z,85.34
2022-08-31T09:48:43.592Z,82.94
2022-08-31T09:51:21.499Z,81.67
2022-08-31T09:54:07.709Z,81.35
2022-08-31T09:56:57.818Z,82.19
2022-08-31T09:59:42.154Z,81.15
2022-08-31T10:02:28.946Z,81.59
2022-08-31T10:05:01.635Z,80.89
2022-08-31T10:07:43.326Z,83.27
2022-08-31T10:10:28.142Z,85.23
2022-08-31T10:13:05.354Z,81.46
2022-08-31T10:15:43.549Z,84.12
2022-08-31T10:18:16.410Z,80.41
2022-08-31T10:20:51.725Z,79.24
2022-08-31T10:23:27.217Z,82.99
2022-08-31T10:26:00.005Z,79.68
2022-08-31T10:28:36.682Z,83.20
2022-08-31T10:31:09.653Z,83.33
2022-08-31T10:34:01.114Z,83.34
2022-08-31T10:36:36.716Z,83.37
2022-08-31T10:39:13.577Z,82.71
2022-08-31T10:41:49.489Z,79.51
2022-08-31T10:44:24.189Z,80.38
2022-08-31T10:47:01.222Z,77.96
2022-08-31T10:49:29.849Z,80.87
2022-08-31T10:52:03.266Z,78.98
2022-08-31T10:54:43.067Z,78.93
2022-08-31T10:57:26.068Z,78.99
2022-08-31T11:00:03.107Z,78.59
2022-08-31T11:02:55.431Z,79.43
2022-08-31T11:05:32.588Z,83.31
2022-08-31T11:08:27.078Z,80.60
2022-08-31T11:10:57.284Z,80.36
2022-08-31T11:13:48.648Z,80.29
2022-08-31T11:16:36.724Z,79.92
2022-08-31T11:19:42.696Z,79.66
2022-08-31T11:22:37.696Z,77.69
2022-08-31T11:25:24.918Z,80.30
2022-08-31T11:28:01.448Z,78.55
2022-08-31T11:30:32.773Z,78.29
2022-08-31T11:33:05.802Z,75.12
2022-08-31T11:36:05.425Z,74.54
2022-08-31T11:38:54.602Z,75.14
2022-08-31T11:41:39.094Z,76.45
2022-08-31T11:44:08.857Z,75.78
2022-08-31T11:46:45.938Z,75.67
2022-08-31T11:49:47.074Z,76.73
2022-08-31T11:52:32.744Z,76.68
2022-08-31T11:55:08.889Z,75.11
2022-08-31T11:58:10.131Z,75.92
2022-08-31T12:00:52.474Z,76.30
2022-08-31T12:03:46.188Z,77.46
2022-08-31T12:06:48.329Z,74.87
2022-08-31T12:09:39.928Z,75.69
2022-08-31T12:12:21.700Z,74.94
2022-08-31T12:14:56.811Z,75.29
2022-08-31T12:17:33.964Z,75.61
2022-08-31T12:20:09.174Z,74.42
2022-08-31T12:23:30.229Z,74.99
2022-08-31T12:26:11.680Z,75.29
2022-08-31T12:28:56.011Z,74.60
2022-08-31T12:31:24.325Z,74.65
2022-08-31T12:33:58.979Z,74.00
2022-08-31T12:36:30.525Z,73.71
2022-08-31T12:39:10.798Z,72.04
2022-08-31T12:41:44.622Z,72.46
2022-08-31T12:44:14.096Z,70.92
2022-08-31T12:47:02.260Z,73.90
2022-08-31T12:49:59.548Z,71.59
2022-08-31T12:52:43.382Z,70.86
2022-08-31T12:55:25.551Z,71.21
2022-08-31T12:58:21.715Z,71.03
2022-08-31T13:00:49.887Z,69.70
2022-08-31T13:03:22.624Z,70.08
2022-08-31T13:06:05.676Z,71.12
2022-08-31T13:08:38.224Z,69.15
2022-08-31T13:11:22.930Z,69.06
2022-08-31T13:13:53.835Z,69.38
2022-08-31T13:16:23.442Z,69.63
2022-08-31T13:19:02.967Z,69.81
2022-08-31T13:21:31.656Z,69.01
2022-08-31T13:24:07.417Z,69.87
2022-08-31T13:26:38.540Z,69.49
2022-08-31T13:29:10.198Z,69.29
2022-08-31T13:31:51.453Z,68.69
2022-08-31T13:34:23.563Z,69.18
2022-08-31T13:36:55.095Z,69.85
2022-08-31T13:39:26.886Z,69.01
2022-08-31T13:41:58.719Z,68.85
2022-08-31T13:44:33.788Z,68.61
2022-08-31T13:47:06.056Z,68.38
2022-08-31T13:49:38.014Z,69.75
2022-08-31T13:52:14.878Z,68.37
2022-08-31T13:54:43.592Z,67.28
2022-08-31T13:57:19.666Z,66.69
2022-08-31T13:59:50.018Z,69.08
2022-08-31T14:02:36.773Z,69.60
2022-08-31T14:05:10.052Z,65.79
2022-08-31T14:07:56.882Z,67.69
2022-08-31T14:10:27.366Z,65.83
2022-08-31T14:12:57.904Z,66.10
2022-08-31T14:15:37.168Z,66.99
2022-08-31T14:18:26.732Z,66.06
2022-08-31T14:21:21.799Z,64.96
2022-08-31T14:23:53.301Z,64.48
2022-08-31T14:26:26.483Z,64.20
2022-08-31T14:28:56.871Z,63.72
2022-08-31T14:31:29.129Z,66.76
2022-08-31T14:34:20.266Z,65.89
2022-08-31T14:36:52.762Z,67.47
2022-08-31T14:39:23.128Z,67.35
2022-08-31T14:41:51.928Z,65.26
2022-08-31T14:44:22.755Z,65.41
2022-08-31T14:46:52.408Z,65.62
2022-08-31T14:49:20.666Z,65.97
2022-08-31T14:51:48.732Z,63.62
2022-08-31T14:54:17.977Z,63.76
2022-08-31T14:56:50.150Z,64.11
2022-08-31T14:59:21.190Z,64.93
2022-08-31T15:01:50.923Z,65.63
2022-08-31T15:04:21.812Z,64.34
2022-08-31T15:06:54.917Z,65.30
2022-08-31T15:09:23.006Z,64.61
2022-08-31T15:11:51.455Z,64.24
2022-08-31T15:14:19.523Z,64.24
2022-08-31T15:16:50.900Z,65.79
2022-08-31T15:19:23.132Z,65.55
2022-08-31T15:22:02.717Z,65.77
2022-08-31T15:24:31.603Z,64.06
2022-08-31T15:27:00.055Z,64.65
2022-08-31T15:29:30.451Z,64.77
2022-08-31T15:31:59.909Z,65.43
2022-08-31T15:34:31.577Z,64.78
2022-08-31T15:37:02.400Z,63.83
2022-08-31T15:39:35.044Z,63.93
2022-08-31T15:42:09.187Z,62.34
2022-08-31T15:44:37.459Z,61.50
2022-08-31T15:47:24.506Z,62.76
2022-08-31T15:49:55.963Z,62.20
2022-08-31T15:52:27.805Z,62.66
2022-08-31T15:54:57.086Z,62.05
2022-08-31T15:57:25.174Z,60.71
2022-08-31T15:59:53.209Z,60.28
2022-08-31T16:02:21.343Z,58.83
2022-08-31T16:04:51.353Z,58.64
2022-08-31T16:07:23.127Z,59.43
2022-08-31T16:09:51.245Z,59.62
2022-08-31T16:12:21.250Z,60.57
2022-08-31T16:14:51.723Z,62.43
2022-08-31T16:17:20.256Z,63.10
2022-08-31T16:19:48.720Z,64.34
2022-08-31T16:22:18.091Z,62.61
2022-08-31T16:24:50.034Z,61.00
2022-08-31T16:27:20.555Z,60.38
2022-08-31T16:29:50.919Z,60.85
2022-08-31T16:32:19.507Z,59.28
2022-08-31T16:34:47.643Z,58.14
2022-08-31T16:37:15.742Z,58.28
2022-08-31T16:39:47.069Z,58.80
2022-08-31T16:42:17.602Z,59.29
2022-08-31T16:44:48.074Z,59.00
2022-08-31T16:47:18.719Z,59.28
2022-08-31T16:49:46.819Z,59.71
2022-08-31T16:52:18.230Z,61.39
2022-08-31T16:54:48.581Z,59.97
2022-08-31T16:57:20.809Z,60.48
2022-08-31T16:59:50.517Z,60.16
2022-08-31T17:02:20.635Z,61.44
2022-08-31T17:04:52.579Z,62.10
2022-08-31T17:07:21.345Z,63.46
2022-08-31T17:09:49.719Z,63.23
2022-08-31T17:12:22.076Z,63.65
2022-08-31T17:14:52.757Z,63.82
2022-08-31T17:17:23.379Z,64.87
2022-08-31T17:19:53.202Z,65.95
2022-08-31T17:22:29.964Z,65.78
2022-08-31T17:25:03.017Z,65.93
2022-08-31T17:27:34.196Z,66.59
2022-08-31T17:30:05.906Z,66.15
2022-08-31T17:32:37.245Z,68.45
2022-08-31T17:35:08.997Z,67.59
2022-08-31T17:37:37.125Z,68.35
2022-08-31T17:40:08.128Z,68.73
2022-08-31T17:42:38.056Z,68.85
2022-08-31T17:45:06.698Z,69.26
2022-08-31T17:47:36.107Z,69.72
2022-08-31T17:50:05.156Z,71.84
2022-08-31T17:52:33.367Z,71.46
2022-08-31T17:55:01.946Z,71.97
2022-08-31T17:57:30.377Z,72.62
2022-08-31T17:59:59.894Z,72.81
2022-08-31T18:02:34.633Z,72.90
2022-08-31T18:05:03.502Z,73.19
2022-08-31T18:07:37.937Z,73.14
2022-08-31T18:10:06.875Z,73.24
2022-08-31T18:12:40.954Z,73.50
2022-08-31T18:15:12.250Z,73.63
2022-08-31T18:17:40.668Z,74.17
2022-08-31T18:20:11.887Z,74.77
2022-08-31T18:22:40.197Z,74.35
2022-08-31T18:25:09.100Z,74.20
2022-08-31T18:27:37.332Z,74.62
2022-08-31T18:30:06.497Z,75.61
2022-08-31T18:32:36.307Z,74.86
2022-08-31T18:35:10.389Z,74.48
2022-08-31T18:37:38.489Z,73.80
2022-08-31T18:40:25.395Z,74.71
2022-08-31T18:43:11.222Z,74.52
2022-08-31T18:45:39.875Z,75.04
2022-08-31T18:48:26.046Z,74.57
2022-08-31T18:50:55.271Z,75.05
2022-08-31T18:53:26.843Z,75.17
2022-08-31T18:55:58.006Z,75.17
2022-08-31T18:58:28.786Z,75.40
2022-08-31T19:00:59.131Z,75.74
2022-08-31T19:03:30.205Z,75.83
2022-08-31T19:05:58.839Z,76.94
2022-08-31T19:08:27.280Z,76.46
2022-08-31T19:10:59.001Z,76.37
2022-08-31T19:13:29.880Z,76.65
2022-08-31T19:16:02.117Z,76.60
2022-08-31T19:18:36.421Z,76.78
2022-08-31T19:21:17.426Z,77.31
2022-08-31T19:23:46.172Z,77.48
2022-08-31T19:26:21.065Z,77.25
2022-08-31T19:28:50.295Z,77.87
2022-08-31T19:31:20.860Z,78.33
2022-08-31T19:33:56.517Z,78.46
2022-08-31T19:36:27.306Z,78.59
2022-08-31T19:38:56.745Z,79.14
2022-08-31T19:41:27.330Z,79.57
2022-08-31T19:44:07.322Z,79.14
2022-08-31T19:46:37.909Z,79.63
2022-08-31T19:49:09.617Z,80.07
2022-08-31T19:51:39.363Z,80.48
2022-08-31T19:54:09.046Z,81.05
2022-08-31T19:56:39.709Z,81.21
2022-08-31T19:59:08.608Z,81.50
2022-08-31T20:01:36.842Z,81.38
2022-08-31T20:04:16.346Z,81.28
2022-08-31T20:06:46.448Z,81.61
2022-08-31T20:09:15.036Z,81.40
2022-08-31T20:11:43.897Z,81.72
2022-08-31T20:14:13.291Z,81.19
2022-08-31T20:16:43.100Z,81.66
2022-08-31T20:19:19.028Z,81.82
2022-08-31T20:21:52.993Z,82.15
2022-08-31T20:24:24.430Z,82.49
2022-08-31T20:26:55.427Z,82.86
2022-08-31T20:29:25.281Z,83.05
2022-08-31T20:31:55.327Z,83.27
2022-08-31T20:34:28.117Z,83.29
2022-08-31T20:37:01.094Z,83.38
2022-08-31T20:39:31.231Z,83.47
2022-08-31T20:42:00.461Z,83.50
2022-08-31T20:44:30.869Z,83.44
2022-08-31T20:47:18.804Z,83.38
2022-08-31T20:49:53.671Z,83.61
2022-08-31T20:52:23.675Z,83.47
2022-08-31T20:55:01.402Z,83.76
2022-08-31T20:57:31.002Z,84.33
2022-08-31T21:00:00.527Z,83.82
2022-08-31T21:02:31.153Z,83.95
2022-08-31T21:05:26.726Z,83.90
2022-08-31T21:07:50.332Z,84.08
2022-08-31T21:10:27.759Z,84.11
2022-08-31T21:13:10.973Z,83.84
2022-08-31T21:15:44.719Z,84.34
2022-08-31T21:18:15.915Z,84.11
2022-08-31T21:20:46.157Z,83.82
2022-08-31T21:23:14.263Z,83.83
2022-08-31T21:25:44.957Z,84.37
2022-08-31T21:28:15.647Z,84.04
2022-08-31T21:30:46.683Z,84.34
2022-08-31T21:33:14.782Z,84.38
2022-08-31T21:35:42.827Z,84.36
2022-08-31T21:38:13.006Z,84.13
2022-08-31T21:40:48.489Z,84.63
2022-08-31T21:43:16.713Z,84.72
2022-08-31T21:45:44.800Z,84.90
2022-08-31T21:48:13.196Z,84.66
2022-08-31T21:50:41.594Z,84.57
2022-08-31T21:53:10.047Z,85.10
2022-08-31T21:55:40.208Z,84.25
2022-08-31T21:58:09.584Z,83.99
2022-08-31T22:00:42.150Z,84.12
2022-08-31T22:03:10.496Z,84.44
2022-08-31T22:05:41.697Z,84.58
2022-08-31T22:08:09.857Z,84.63
2022-08-31T22:10:42.052Z,84.61
2022-08-31T22:13:12.232Z,84.07
2022-08-31T22:15:41.088Z,83.95
2022-08-31T22:18:58.189Z,83.55
2022-08-31T22:20:59.510Z,83.83
2022-08-31T22:23:27.749Z,84.33
2022-08-31T22:25:57.375Z,84.31
2022-08-31T22:28:27.593Z,84.57
2022-08-31T22:30:56.989Z,84.68
2022-08-31T22:33:25.371Z,84.91
2022-08-31T22:35:53.636Z,84.99
2022-08-31T22:38:21.879Z,84.60
2022-08-31T22:40:50.962Z,84.34
2022-08-31T22:43:20.544Z,84.35
2022-08-31T22:45:49.543Z,83.94
2022-08-31T22:48:18.198Z,83.62
2022-08-31T22:50:46.496Z,83.92
2022-08-31T22:53:14.876Z,83.51
2022-08-31T22:55:43.175Z,83.87
2022-08-31T22:58:12.643Z,84.02
2022-08-31T23:00:47.956Z,83.97
2022-08-31T23:03:16.690Z,84.20
2022-08-31T23:05:45.140Z,84.03
2022-08-31T23:08:14.053Z,84.15
2022-08-31T23:10:43.012Z,84.24
2022-08-31T23:13:11.206Z,84.09
2022-08-31T23:15:40.244Z,84.17
2022-08-31T23:18:10.585Z,84.28
2022-08-31T23:20:41.962Z,84.38
2022-08-31T23:23:10.533Z,84.46
2022-08-31T23:25:40.675Z,84.26
2022-08-31T23:28:09.535Z,83.72
2022-08-31T23:30:38.280Z,83.39
2022-08-31T23:33:07.490Z,83.27
2022-08-31T23:35:37.284Z,83.43
2022-08-31T23:38:05.400Z,82.51
2022-08-31T23:40:34.328Z,83.24
2022-08-31T23:43:02.526Z,83.61
2022-08-31T23:45:32.025Z,83.13
2022-08-31T23:48:00.134Z,82.92
2022-08-31T23:50:28.117Z,83.88
2022-08-31T23:52:57.575Z,83.47
2022-08-31T23:55:31.277Z,84.18
2022-08-31T23:57:59.376Z,84.35
